createdAt,value
2022-08-03T00:01:36.146Z,3.85
2022-08-03T00:04:03.424Z,3.83
2022-08-03T00:06:33.770Z,3.50
2022-08-03T00:09:08.104Z,3.88
2022-08-03T00:11:35.197Z,3.00
2022-08-03T00:14:02.060Z,4.10
2022-08-03T00:16:28.758Z,3.88
2022-08-03T00:18:55.595Z,4.45
2022-08-03T00:21:22.269Z,5.20
2022-08-03T00:23:52.388Z,5.85
2022-08-03T00:26:23.421Z,3.85
2022-08-03T00:28:50.598Z,5.35
2022-08-03T00:31:20.398Z,4.70
2022-08-03T00:34:04.580Z,4.40
2022-08-03T00:36:32.690Z,4.80
2022-08-03T00:38:59.345Z,4.55
2022-08-03T00:41:26.013Z,6.45
2022-08-03T00:43:52.710Z,4.70
2022-08-03T00:46:21.869Z,5.38
2022-08-03T00:48:53.652Z,3.88
2022-08-03T00:51:22.268Z,4.50
2022-08-03T00:53:50.327Z,4.10
2022-08-03T00:56:17.735Z,4.97
2022-08-03T00:58:46.299Z,4.65
2022-08-03T01:01:13.439Z,3.67
2022-08-03T01:03:40.857Z,4.60
2022-08-03T01:06:18.813Z,4.75
2022-08-03T01:09:13.195Z,4.28
2022-08-03T01:12:04.070Z,6.22
2022-08-03T01:14:58.644Z,6.38
2022-08-03T01:18:05.342Z,6.60
2022-08-03T01:20:34.729Z,4.32
2022-08-03T01:23:29.217Z,7.75
2022-08-03T01:26:03.802Z,4.35
2022-08-03T01:28:46.699Z,4.80
2022-08-03T01:31:18.996Z,4.70
2022-08-03T01:33:52.855Z,4.35
2022-08-03T01:36:26.456Z,4.50
2022-08-03T01:39:01.646Z,4.93
2022-08-03T01:41:35.387Z,5.35
2022-08-03T01:44:29.112Z,6.57
2022-08-03T01:46:53.440Z,5.28
2022-08-03T01:49:21.423Z,5.13
2022-08-03T01:52:03.464Z,5.15
2022-08-03T01:54:34.969Z,5.60
2022-08-03T01:57:03.162Z,6.45
2022-08-03T01:59:32.586Z,6.65
2022-08-03T02:02:25.184Z,4.68
2022-08-03T02:04:48.503Z,3.40
2022-08-03T02:07:16.543Z,5.10
2022-08-03T02:09:46.870Z,4.25
2022-08-03T02:12:15.277Z,4.38
2022-08-03T02:14:44.619Z,4.85
2022-08-03T02:17:13.160Z,5.13
2022-08-03T02:19:42.034Z,6.38
2022-08-03T02:22:11.151Z,11.10
2022-08-03T02:24:38.409Z,4.57
2022-08-03T02:27:19.395Z,4.55
2022-08-03T02:29:52.076Z,7.05
2022-08-03T02:32:24.368Z,7.57
2022-08-03T02:34:53.796Z,8.48
2022-08-03T02:37:23.080Z,5.50
2022-08-03T02:39:53.402Z,4.18
2022-08-03T02:42:23.406Z,6.85
2022-08-03T02:44:51.218Z,4.43
2022-08-03T02:47:21.094Z,5.20
2022-08-03T02:49:52.161Z,4.95
2022-08-03T02:52:23.431Z,4.18
2022-08-03T02:54:53.608Z,6.03
2022-08-03T02:57:22.038Z,4.57
2022-08-03T02:59:50.337Z,4.25
2022-08-03T03:02:18.292Z,6.07
2022-08-03T03:05:01.316Z,6.30
2022-08-03T03:07:41.719Z,4.18
2022-08-03T03:10:21.689Z,7.05
2022-08-03T03:12:55.260Z,5.55
2022-08-03T03:17:51.639Z,5.15
2022-08-03T03:20:29.046Z,5.47
2022-08-03T03:22:57.970Z,4.38
2022-08-03T03:25:24.973Z,5.18
2022-08-03T03:27:51.814Z,4.43
2022-08-03T03:30:18.805Z,5.10
2022-08-03T03:32:45.589Z,3.58
2022-08-03T03:35:14.047Z,4.28
2022-08-03T03:37:40.823Z,6.22
2022-08-03T03:40:09.161Z,4.38
2022-08-03T03:42:36.130Z,3.97
2022-08-03T03:45:07.547Z,5.32
2022-08-03T03:47:35.771Z,5.00
2022-08-03T03:50:04.965Z,6.75
2022-08-03T03:52:32.504Z,4.28
2022-08-03T03:55:01.309Z,6.45
2022-08-03T03:57:29.389Z,5.60
2022-08-03T03:59:56.186Z,3.97
2022-08-03T04:02:22.928Z,5.72
2022-08-03T04:05:08.160Z,6.47
2022-08-03T04:08:08.275Z,4.28
2022-08-03T04:10:54.667Z,5.03
2022-08-03T04:13:22.249Z,5.97
2022-08-03T04:15:50.623Z,4.72
2022-08-03T04:18:18.262Z,4.47
2022-08-03T04:20:48.865Z,5.28
2022-08-03T04:23:18.799Z,4.22
2022-08-03T04:25:48.999Z,6.75
2022-08-03T04:28:31.262Z,6.18
2022-08-03T04:31:01.072Z,6.38
2022-08-03T04:33:32.356Z,5.05
2022-08-03T04:36:03.154Z,6.57
2022-08-03T04:38:40.493Z,6.22
2022-08-03T04:41:08.959Z,4.90
2022-08-03T04:43:36.652Z,6.45
2022-08-03T04:46:04.592Z,5.75
2022-08-03T04:48:31.510Z,4.32
2022-08-03T04:50:58.287Z,3.97
2022-08-03T04:53:24.955Z,4.93
2022-08-03T04:55:51.608Z,6.18
2022-08-03T04:58:18.252Z,4.95
2022-08-03T05:00:45.727Z,6.95
2022-08-03T05:03:19.546Z,4.03
2022-08-03T05:05:52.581Z,4.40
2022-08-03T05:08:20.561Z,6.78
2022-08-03T05:10:54.600Z,7.47
2022-08-03T05:13:21.237Z,6.32
2022-08-03T05:15:47.998Z,4.75
2022-08-03T05:18:14.613Z,6.43
2022-08-03T05:20:41.533Z,5.53
2022-08-03T05:23:08.288Z,4.63
2022-08-03T05:25:35.026Z,4.28
2022-08-03T05:28:01.673Z,5.22
2022-08-03T05:30:33.191Z,5.07
2022-08-03T05:33:01.518Z,4.57
2022-08-03T05:36:00.591Z,6.13
2022-08-03T05:38:28.215Z,6.72
2022-08-03T05:41:20.298Z,16.40
2022-08-03T05:43:43.623Z,4.57
2022-08-03T05:46:12.986Z,6.70
2022-08-03T05:48:40.500Z,5.75
2022-08-03T05:51:11.446Z,5.75
2022-08-03T05:53:42.388Z,5.03
2022-08-03T05:56:14.277Z,7.03
2022-08-03T05:58:47.326Z,4.80
2022-08-03T06:01:15.863Z,6.35
2022-08-03T06:03:42.796Z,5.93
2022-08-03T06:06:09.757Z,5.65
2022-08-03T06:08:36.597Z,5.35
2022-08-03T06:11:04.840Z,6.78
2022-08-03T06:13:32.326Z,6.55
2022-08-03T06:15:58.986Z,6.07
2022-08-03T06:18:25.661Z,5.13
2022-08-03T06:20:53.331Z,3.60
2022-08-03T06:23:20.067Z,4.70
2022-08-03T06:25:49.847Z,6.75
2022-08-03T06:28:51.224Z,4.35
2022-08-03T06:31:06.436Z,5.53
2022-08-03T06:34:31.051Z,4.47
2022-08-03T06:36:20.576Z,6.53
2022-08-03T06:38:47.677Z,6.57
2022-08-03T06:41:14.736Z,2.95
2022-08-03T06:44:03.883Z,7.60
2022-08-03T06:46:31.567Z,5.72
2022-08-03T06:48:58.643Z,6.78
2022-08-03T06:52:03.688Z,5.55
2022-08-03T06:54:13.275Z,4.03
2022-08-03T06:56:39.865Z,4.32
2022-08-03T06:59:06.479Z,5.40
2022-08-03T07:01:33.222Z,4.90
2022-08-03T07:04:00.648Z,3.60
2022-08-03T07:06:27.453Z,4.10
2022-08-03T07:08:58.935Z,4.32
2022-08-03T07:11:26.466Z,3.78
2022-08-03T07:13:53.072Z,3.97
2022-08-03T07:16:20.287Z,4.90
2022-08-03T07:18:49.986Z,4.05
2022-08-03T07:21:17.118Z,3.70
2022-08-03T07:23:43.747Z,3.15
2022-08-03T07:26:10.399Z,4.47
2022-08-03T07:28:37.754Z,3.92
2022-08-03T07:31:04.348Z,3.17
2022-08-03T07:33:31.012Z,3.78
2022-08-03T07:35:57.669Z,3.83
2022-08-03T07:38:24.306Z,2.88
2022-08-03T07:40:50.910Z,3.45
2022-08-03T07:43:17.709Z,2.80
2022-08-03T07:45:44.341Z,3.63
2022-08-03T07:48:12.597Z,2.60
2022-08-03T07:50:39.632Z,2.28
2022-08-03T07:53:06.234Z,2.10
2022-08-03T07:55:33.100Z,2.05
2022-08-03T07:58:12.546Z,3.85
2022-08-03T08:00:39.552Z,2.58
2022-08-03T08:03:06.503Z,2.00
2022-08-03T08:05:33.930Z,2.22
2022-08-03T08:08:01.477Z,2.17
2022-08-03T08:10:28.372Z,4.93
2022-08-03T08:12:55.640Z,4.63
2022-08-03T08:15:22.424Z,2.55
2022-08-03T08:17:57.727Z,1.98
2022-08-03T08:20:31.630Z,5.97
2022-08-03T08:23:03.711Z,3.08
2022-08-03T08:25:43.213Z,3.15
2022-08-03T08:28:31.106Z,2.38
2022-08-03T08:30:56.555Z,1.88
2022-08-03T08:33:24.053Z,2.22
2022-08-03T08:35:53.232Z,2.75
2022-08-03T08:38:19.926Z,3.45
2022-08-03T08:40:46.660Z,2.72
2022-08-03T08:43:13.311Z,1.75
2022-08-03T08:45:41.670Z,1.77
2022-08-03T08:48:10.749Z,1.88
2022-08-03T08:50:39.243Z,1.75
2022-08-03T08:53:09.895Z,4.68
2022-08-03T08:55:59.796Z,2.03
2022-08-03T08:58:30.541Z,1.92
2022-08-03T09:00:57.379Z,1.23
2022-08-03T09:03:30.145Z,2.60
2022-08-03T09:05:59.452Z,2.58
2022-08-03T09:08:26.325Z,2.25
2022-08-03T09:10:53.012Z,1.48
2022-08-03T09:13:19.703Z,1.70
2022-08-03T09:16:00.907Z,1.52
2022-08-03T09:18:32.441Z,2.22
2022-08-03T09:21:34.591Z,1.42
2022-08-03T09:24:06.104Z,2.38
2022-08-03T09:26:37.100Z,3.95
2022-08-03T09:29:09.361Z,2.55
2022-08-03T09:31:48.804Z,2.15
2022-08-03T09:34:17.450Z,3.90
2022-08-03T09:36:49.067Z,1.10
2022-08-03T09:39:37.468Z,2.90
2022-08-03T09:42:14.743Z,2.35
2022-08-03T09:44:44.240Z,1.90
2022-08-03T09:47:12.214Z,2.38
2022-08-03T09:49:41.626Z,2.25
2022-08-03T09:52:38.649Z,2.05
2022-08-03T09:55:23.655Z,2.97
2022-08-03T09:58:09.212Z,1.77
2022-08-03T10:01:03.787Z,1.67
2022-08-03T10:03:32.575Z,1.67
2022-08-03T10:06:00.113Z,1.20
2022-08-03T10:08:27.040Z,2.33
2022-08-03T10:10:58.742Z,2.53
2022-08-03T10:13:25.649Z,3.10
2022-08-03T10:16:22.392Z,1.38
2022-08-03T10:18:39.100Z,1.40
2022-08-03T10:21:10.751Z,2.85
2022-08-03T10:23:39.972Z,1.50
2022-08-03T10:26:08.259Z,1.90
2022-08-03T10:28:44.729Z,1.00
2022-08-03T10:31:14.149Z,1.40
2022-08-03T10:33:51.279Z,1.40
2022-08-03T10:36:23.395Z,1.88
2022-08-03T10:38:56.619Z,1.13
2022-08-03T10:43:59.525Z,1.40
2022-08-03T10:46:27.542Z,1.52
2022-08-03T10:48:56.608Z,1.08
2022-08-03T10:51:24.314Z,2.13
2022-08-03T10:53:55.047Z,2.30
2022-08-03T10:56:52.662Z,1.35
2022-08-03T10:59:46.391Z,1.58
2022-08-03T11:02:16.303Z,2.50
2022-08-03T11:04:45.039Z,2.78
2022-08-03T11:07:19.421Z,2.53
2022-08-03T11:09:48.663Z,3.10
2022-08-03T11:12:32.910Z,2.88
2022-08-03T11:15:06.233Z,1.65
2022-08-03T11:20:47.096Z,2.03
2022-08-03T11:23:15.724Z,1.38
2022-08-03T11:26:10.789Z,3.70
2022-08-03T11:28:41.113Z,1.48
2022-08-03T11:31:49.339Z,3.20
2022-08-03T11:34:17.623Z,2.65
2022-08-03T11:37:19.876Z,1.73
2022-08-03T11:39:48.025Z,2.70
2022-08-03T11:42:27.143Z,3.38
2022-08-03T11:44:56.112Z,2.67
2022-08-03T11:47:25.675Z,1.25
2022-08-03T11:49:55.930Z,1.20
2022-08-03T11:52:27.102Z,1.85
2022-08-03T11:54:56.961Z,1.35
2022-08-03T11:59:01.932Z,3.53
2022-08-03T12:00:28.930Z,1.65
2022-08-03T12:03:02.407Z,1.63
2022-08-03T12:05:42.522Z,5.10
2022-08-03T12:08:27.839Z,1.38
2022-08-03T12:10:56.233Z,2.13
2022-08-03T12:14:27.077Z,1.35
2022-08-03T12:16:56.892Z,1.45
2022-08-03T12:19:23.669Z,2.43
2022-08-03T12:21:56.800Z,2.13
2022-08-03T12:24:24.297Z,1.33
2022-08-03T12:26:58.433Z,3.20
2022-08-03T12:29:26.806Z,2.88
2022-08-03T12:31:53.610Z,1.33
2022-08-03T12:34:20.368Z,1.50
2022-08-03T12:36:56.302Z,1.67
2022-08-03T12:39:24.610Z,4.38
2022-08-03T12:45:37.676Z,1.60
2022-08-03T12:48:09.228Z,1.83
2022-08-03T12:50:37.315Z,1.75
2022-08-03T12:53:08.022Z,1.88
2022-08-03T12:55:40.114Z,1.67
2022-08-03T12:58:34.164Z,1.48
2022-08-03T13:01:05.161Z,2.58
2022-08-03T13:07:23.477Z,2.47
2022-08-03T13:09:55.336Z,1.55
2022-08-03T13:13:22.404Z,2.55
2022-08-03T13:15:49.239Z,1.27
2022-08-03T13:18:17.487Z,2.05
2022-08-03T13:20:44.429Z,4.43
2022-08-03T13:23:22.005Z,1.23
2022-08-03T13:25:55.221Z,2.90
2022-08-03T13:28:23.505Z,1.75
2022-08-03T13:30:50.354Z,1.48
2022-08-03T13:33:17.453Z,1.75
2022-08-03T13:35:44.178Z,2.17
2022-08-03T13:38:10.993Z,2.10
2022-08-03T13:40:38.475Z,2.00
2022-08-03T13:43:08.908Z,2.20
2022-08-03T13:45:35.789Z,2.30
2022-08-03T13:48:02.538Z,1.98
2022-08-03T13:50:30.294Z,5.13
2022-08-03T13:52:57.975Z,3.03
2022-08-03T13:55:24.832Z,3.03
2022-08-03T13:58:04.606Z,2.45
2022-08-03T14:00:34.411Z,2.25
2022-08-03T14:03:08.006Z,1.35
2022-08-03T14:05:39.376Z,1.20
2022-08-03T14:08:07.127Z,4.68
2022-08-03T14:10:35.910Z,2.63
2022-08-03T14:13:03.637Z,1.48
2022-08-03T14:15:30.712Z,1.48
2022-08-03T14:17:58.380Z,1.42
2022-08-03T14:20:37.813Z,1.65
2022-08-03T14:23:07.007Z,1.35
2022-08-03T14:25:50.099Z,2.47
2022-08-03T14:28:20.861Z,1.42
2022-08-03T14:30:48.736Z,1.65
2022-08-03T14:33:15.825Z,1.58
2022-08-03T14:35:42.831Z,3.53
2022-08-03T14:38:09.531Z,3.30
2022-08-03T14:40:36.250Z,1.80
2022-08-03T14:43:03.211Z,2.25
2022-08-03T14:45:29.944Z,1.95
2022-08-03T14:50:29.466Z,1.95
2022-08-03T14:50:50.201Z,2.78
2022-08-03T14:53:18.379Z,1.20
2022-08-03T14:55:50.557Z,1.33
2022-08-03T14:58:22.748Z,2.08
2022-08-03T15:00:54.283Z,1.20
2022-08-03T15:03:24.855Z,1.65
2022-08-03T15:05:57.773Z,2.20
2022-08-03T15:08:25.849Z,1.92
2022-08-03T15:10:54.092Z,1.08
2022-08-03T15:13:21.134Z,1.00
2022-08-03T15:15:48.366Z,1.50
2022-08-03T15:18:15.328Z,2.67
2022-08-03T15:20:45.468Z,1.55
2022-08-03T15:23:14.834Z,1.85
2022-08-03T15:26:32.315Z,4.07
2022-08-03T15:28:30.363Z,1.67
2022-08-03T15:30:57.397Z,1.67
2022-08-03T15:33:24.125Z,3.20
2022-08-03T15:35:50.841Z,2.53
2022-08-03T15:38:17.792Z,2.47
2022-08-03T15:40:44.970Z,3.17
2022-08-03T15:43:11.858Z,1.50
2022-08-03T15:45:38.679Z,4.40
2022-08-03T15:48:06.946Z,1.55
2022-08-03T15:50:35.223Z,1.10
2022-08-03T15:53:02.020Z,1.70
2022-08-03T15:55:28.803Z,1.05
2022-08-03T15:59:04.358Z,0.98
2022-08-03T16:00:43.224Z,1.33
2022-08-03T16:03:10.768Z,3.83
2022-08-03T16:05:37.555Z,3.53
2022-08-03T16:08:06.309Z,1.65
2022-08-03T16:10:35.879Z,2.05
2022-08-03T16:13:02.641Z,1.55
2022-08-03T16:15:29.395Z,1.90
2022-08-03T16:17:56.314Z,2.10
2022-08-03T16:20:33.937Z,1.48
2022-08-03T16:23:10.530Z,1.80
2022-08-03T16:25:42.770Z,1.15
2022-08-03T16:28:14.259Z,3.83
2022-08-03T16:30:43.886Z,2.40
2022-08-03T16:33:16.742Z,2.55
2022-08-03T16:35:44.725Z,1.00
2022-08-03T16:38:14.188Z,2.03
2022-08-03T16:40:45.913Z,2.85
2022-08-03T16:43:18.108Z,1.80
2022-08-03T16:45:46.635Z,1.67
2022-08-03T16:48:14.014Z,3.20
2022-08-03T16:50:40.782Z,2.45
2022-08-03T16:53:09.593Z,1.67
2022-08-03T16:55:43.394Z,2.17
2022-08-03T16:58:19.630Z,1.38
2022-08-03T17:01:06.388Z,1.60
2022-08-03T17:04:01.663Z,2.00
2022-08-03T17:06:35.029Z,1.20
2022-08-03T17:09:13.950Z,1.40
2022-08-03T17:11:46.549Z,1.52
2022-08-03T17:14:14.931Z,2.67
2022-08-03T17:16:52.517Z,1.48
2022-08-03T17:19:23.209Z,2.00
2022-08-03T17:21:58.318Z,1.85
2022-08-03T17:24:32.201Z,2.65
2022-08-03T17:27:04.384Z,2.70
2022-08-03T17:29:39.365Z,1.85
2022-08-03T17:32:17.871Z,1.13
2022-08-03T17:34:47.351Z,2.63
2022-08-03T17:37:27.127Z,2.03
2022-08-03T17:40:05.182Z,1.80
2022-08-03T17:42:33.238Z,1.52
2022-08-03T17:45:03.570Z,1.27
2022-08-03T17:47:41.424Z,1.65
2022-08-03T17:50:24.539Z,1.10
2022-08-03T17:53:06.815Z,1.20
2022-08-03T17:55:56.674Z,1.40
2022-08-03T17:58:43.679Z,1.30
2022-08-03T18:02:06.028Z,1.02
2022-08-03T18:04:29.648Z,2.65
2022-08-03T18:06:59.522Z,2.55
2022-08-03T18:10:04.495Z,2.10
2022-08-03T18:12:27.150Z,2.13
2022-08-03T18:15:01.146Z,1.10
2022-08-03T18:17:55.787Z,2.15
2022-08-03T18:20:34.417Z,2.33
2022-08-03T18:23:08.928Z,1.10
2022-08-03T18:25:45.695Z,3.22
2022-08-03T18:28:19.225Z,2.17
2022-08-03T18:30:54.470Z,1.88
2022-08-03T18:34:17.323Z,4.30
2022-08-03T18:36:18.082Z,2.30
2022-08-03T18:38:47.576Z,1.73
2022-08-03T18:41:22.156Z,4.47
2022-08-03T18:44:08.693Z,2.78
2022-08-03T18:46:55.369Z,1.73
2022-08-03T18:49:56.719Z,3.63
2022-08-03T18:52:53.035Z,1.40
2022-08-03T18:55:38.182Z,2.85
2022-08-03T18:58:52.371Z,2.05
2022-08-03T19:01:58.091Z,1.58
2022-08-03T19:04:41.181Z,2.15
2022-08-03T19:07:36.024Z,3.17
2022-08-03T19:10:05.593Z,4.05
2022-08-03T19:12:41.790Z,3.03
2022-08-03T19:15:15.776Z,3.08
2022-08-03T19:17:53.185Z,1.90
2022-08-03T19:20:24.964Z,3.90
2022-08-03T19:22:54.038Z,3.78
2022-08-03T19:25:34.715Z,5.13
2022-08-03T19:28:05.862Z,4.00
2022-08-03T19:30:53.752Z,2.25
2022-08-03T19:33:21.055Z,1.70
2022-08-03T19:35:55.104Z,3.63
2022-08-03T19:38:27.403Z,1.80
2022-08-03T19:40:58.201Z,3.50
2022-08-03T19:43:49.417Z,3.40
2022-08-03T19:46:21.750Z,2.65
2022-08-03T19:49:16.212Z,5.03
2022-08-03T19:52:00.685Z,3.75
2022-08-03T19:54:39.665Z,2.60
2022-08-03T19:57:27.366Z,3.17
2022-08-03T19:59:55.632Z,3.88
2022-08-03T20:02:27.967Z,3.03
2022-08-03T20:04:57.610Z,4.38
2022-08-03T20:07:28.463Z,3.45
2022-08-03T20:09:56.621Z,4.38
2022-08-03T20:12:27.755Z,4.25
2022-08-03T20:14:57.544Z,3.08
2022-08-03T20:17:55.115Z,3.53
2022-08-03T20:20:11.336Z,4.03
2022-08-03T20:22:43.110Z,3.60
2022-08-03T20:25:20.740Z,3.22
2022-08-03T20:28:07.344Z,4.78
2022-08-03T20:30:44.491Z,3.03
2022-08-03T20:33:18.253Z,7.18
2022-08-03T20:35:45.789Z,5.20
2022-08-03T20:38:15.763Z,4.70
2022-08-03T20:40:42.564Z,3.88
2022-08-03T20:43:09.451Z,4.20
2022-08-03T20:45:59.800Z,4.78
2022-08-03T20:48:27.054Z,5.50
2022-08-03T20:50:55.633Z,5.53
2022-08-03T20:53:57.422Z,4.90
2022-08-03T20:56:10.087Z,4.63
2022-08-03T20:58:37.061Z,7.47
2022-08-03T21:01:08.294Z,3.88
2022-08-03T21:03:41.227Z,5.95
2022-08-03T21:06:27.878Z,4.57
2022-08-03T21:09:04.089Z,8.20
2022-08-03T21:11:41.744Z,11.55
2022-08-03T21:14:37.703Z,6.95
2022-08-03T21:17:14.027Z,8.23
2022-08-03T21:19:51.960Z,5.18
2022-08-03T21:22:23.007Z,6.75
2022-08-03T21:24:54.343Z,10.27
2022-08-03T21:27:24.769Z,9.48
2022-08-03T21:29:53.240Z,6.90
2022-08-03T21:32:32.887Z,7.13
2022-08-03T21:35:01.367Z,6.20
2022-08-03T21:37:28.884Z,10.07
2022-08-03T21:39:56.447Z,6.60
2022-08-03T21:42:26.673Z,6.40
2022-08-03T21:44:54.209Z,6.78
2022-08-03T21:47:22.760Z,6.05
2022-08-03T21:50:08.584Z,10.18
2022-08-03T21:52:42.040Z,7.00
2022-08-03T21:55:20.642Z,6.15
2022-08-03T21:57:52.623Z,6.85
2022-08-03T22:00:23.093Z,7.53
2022-08-03T22:02:56.089Z,7.63
2022-08-03T22:05:42.816Z,10.07
2022-08-03T22:08:12.859Z,11.00
2022-08-03T22:10:40.546Z,9.35
2022-08-03T22:13:07.367Z,7.82
2022-08-03T22:15:34.363Z,5.28
2022-08-03T22:18:03.788Z,8.43
2022-08-03T22:20:31.085Z,9.75
2022-08-03T22:23:04.139Z,6.07
2022-08-03T22:25:34.128Z,8.75
2022-08-03T22:28:04.233Z,6.15
2022-08-03T22:30:33.330Z,11.68
2022-08-03T22:33:02.166Z,6.70
2022-08-03T22:35:32.083Z,5.45
2022-08-03T22:38:11.299Z,9.55
2022-08-03T22:40:39.092Z,5.40
2022-08-03T22:43:07.469Z,5.85
2022-08-03T22:46:07.694Z,7.88
2022-08-03T22:48:26.782Z,5.30
2022-08-03T22:50:53.940Z,7.40
2022-08-03T22:53:21.941Z,5.00
2022-08-03T22:55:49.801Z,5.35
2022-08-03T22:58:16.717Z,4.47
2022-08-03T23:00:54.021Z,5.35
2022-08-03T23:04:01.063Z,5.65
2022-08-03T23:06:15.332Z,5.47
2022-08-03T23:08:46.606Z,8.27
2022-08-03T23:11:15.294Z,6.63
2022-08-03T23:13:46.790Z,5.65
2022-08-03T23:16:14.820Z,5.78
2022-08-03T23:18:42.670Z,7.13
2022-08-03T23:21:11.653Z,6.57
2022-08-03T23:23:44.584Z,7.90
2022-08-03T23:26:13.339Z,5.32
2022-08-03T23:28:41.561Z,6.55
2022-08-03T23:31:08.903Z,3.60
2022-08-03T23:33:39.092Z,6.18
2022-08-03T23:36:17.301Z,4.35
2022-08-03T23:38:54.111Z,6.38
2022-08-03T23:41:22.202Z,4.20
2022-08-03T23:43:51.757Z,5.13
2022-08-03T23:46:22.607Z,4.15
2022-08-03T23:48:51.007Z,4.82
2022-08-03T23:51:28.709Z,5.15
2022-08-03T23:54:03.352Z,6.82
2022-08-03T23:56:51.742Z,5.28
2022-08-03T23:59:29.919Z,4.22
